sensor_id;sensor_type;location;lat;lon;timestamp;temperature;humidity
63771;DHT22;60282;43.862;18.430;2022-11-18T00:01:18;9.90;99.90
63771;DHT22;60282;43.862;18.430;2022-11-18T00:03:46;9.70;99.90
63771;DHT22;60282;43.862;18.430;2022-11-18T00:06:26;9.90;99.90
63771;DHT22;60282;43.862;18.430;2022-11-18T00:08:54;9.90;99.90
63771;DHT22;60282;43.862;18.430;2022-11-18T00:11:32;9.90;99.90
63771;DHT22;60282;43.862;18.430;2022-11-18T00:14:19;9.90;99.90
63771;DHT22;60282;43.862;18.430;2022-11-18T00:16:47;9.90;99.90
63771;DHT22;60282;43.862;18.430;2022-11-18T00:19:14;9.90;99.90
63771;DHT22;60282;43.862;18.430;2022-11-18T00:21:45;9.90;99.90
63771;DHT22;60282;43.862;18.430;2022-11-18T00:24:10;9.90;99.90
63771;DHT22;60282;43.862;18.430;2022-11-18T00:26:36;9.80;99.90
63771;DHT22;60282;43.862;18.430;2022-11-18T00:29:02;9.80;99.90
63771;DHT22;60282;43.862;18.430;2022-11-18T00:31:33;9.80;99.90
63771;DHT22;60282;43.862;18.430;2022-11-18T00:33:59;9.80;99.90
63771;DHT22;60282;43.862;18.430;2022-11-18T00:36:25;9.80;99.90
63771;DHT22;60282;43.862;18.430;2022-11-18T00:38:50;9.80;99.90
63771;DHT22;60282;43.862;18.430;2022-11-18T00:41:16;9.80;99.90
63771;DHT22;60282;43.862;18.430;2022-11-18T00:43:51;9.70;99.90
63771;DHT22;60282;43.862;18.430;2022-11-18T00:46:17;9.70;99.90
63771;DHT22;60282;43.862;18.430;2022-11-18T00:48:42;9.80;99.90
63771;DHT22;60282;43.862;18.430;2022-11-18T00:51:16;9.80;99.90
63771;DHT22;60282;43.862;18.430;2022-11-18T00:53:43;9.70;99.90
63771;DHT22;60282;43.862;18.430;2022-11-18T00:56:09;9.70;99.90
63771;DHT22;60282;43.862;18.430;2022-11-18T00:58:35;9.70;99.90
63771;DHT22;60282;43.862;18.430;2022-11-18T01:01:01;9.70;99.90
63771;DHT22;60282;43.862;18.430;2022-11-18T01:03:29;9.60;99.90
63771;DHT22;60282;43.862;18.430;2022-11-18T01:05:55;9.50;99.90
63771;DHT22;60282;43.862;18.430;2022-11-18T01:08:22;9.50;99.90
63771;DHT22;60282;43.862;18.430;2022-11-18T01:10:48;9.40;99.90
63771;DHT22;60282;43.862;18.430;2022-11-18T01:13:17;9.40;99.90
63771;DHT22;60282;43.862;18.430;2022-11-18T01:15:53;9.30;99.90
63771;DHT22;60282;43.862;18.430;2022-11-18T01:18:39;9.30;99.90
63771;DHT22;60282;43.862;18.430;2022-11-18T01:21:04;9.30;99.90
63771;DHT22;60282;43.862;18.430;2022-11-18T01:23:30;9.10;99.90
63771;DHT22;60282;43.862;18.430;2022-11-18T01:26:03;9.10;99.90
63771;DHT22;60282;43.862;18.430;2022-11-18T01:28:31;9.10;99.90
63771;DHT22;60282;43.862;18.430;2022-11-18T01:31:05;9.10;99.90
63771;DHT22;60282;43.862;18.430;2022-11-18T01:33:31;9.10;99.90
63771;DHT22;60282;43.862;18.430;2022-11-18T01:36:03;9.00;99.90
63771;DHT22;60282;43.862;18.430;2022-11-18T01:38:33;9.00;99.90
63771;DHT22;60282;43.862;18.430;2022-11-18T01:41:01;9.00;99.90
63771;DHT22;60282;43.862;18.430;2022-11-18T01:43:51;9.10;99.90
63771;DHT22;60282;43.862;18.430;2022-11-18T01:46:18;9.10;99.90
63771;DHT22;60282;43.862;18.430;2022-11-18T01:48:46;9.10;99.90
63771;DHT22;60282;43.862;18.430;2022-11-18T01:51:18;7.30;99.90
63771;DHT22;60282;43.862;18.430;2022-11-18T01:53:49;9.10;99.90
63771;DHT22;60282;43.862;18.430;2022-11-18T01:56:22;9.10;99.90
63771;DHT22;60282;43.862;18.430;2022-11-18T01:59:00;9.00;99.90
63771;DHT22;60282;43.862;18.430;2022-11-18T02:01:26;9.10;99.90
63771;DHT22;60282;43.862;18.430;2022-11-18T02:03:57;7.40;99.90
63771;DHT22;60282;43.862;18.430;2022-11-18T02:06:23;9.00;99.90
63771;DHT22;60282;43.862;18.430;2022-11-18T02:08:53;9.00;99.90
63771;DHT22;60282;43.862;18.430;2022-11-18T02:11:20;9.00;99.90
63771;DHT22;60282;43.862;18.430;2022-11-18T02:14:07;8.90;99.90
63771;DHT22;60282;43.862;18.430;2022-11-18T02:22:24;9.00;99.90
63771;DHT22;60282;43.862;18.430;2022-11-18T02:25:04;8.90;99.90
63771;DHT22;60282;43.862;18.430;2022-11-18T02:27:57;8.90;99.90
63771;DHT22;60282;43.862;18.430;2022-11-18T02:30:20;8.90;99.90
63771;DHT22;60282;43.862;18.430;2022-11-18T02:33:24;8.90;99.90
63771;DHT22;60282;43.862;18.430;2022-11-18T02:36:08;9.00;99.90
63771;DHT22;60282;43.862;18.430;2022-11-18T02:38:44;9.00;99.90
63771;DHT22;60282;43.862;18.430;2022-11-18T02:41:19;9.10;99.90
63771;DHT22;60282;43.862;18.430;2022-11-18T02:43:57;9.10;99.90
63771;DHT22;60282;43.862;18.430;2022-11-18T02:46:32;9.10;99.90
63771;DHT22;60282;43.862;18.430;2022-11-18T02:49:03;9.20;99.90
63771;DHT22;60282;43.862;18.430;2022-11-18T02:51:31;9.20;99.90
63771;DHT22;60282;43.862;18.430;2022-11-18T02:54:01;9.30;99.90
63771;DHT22;60282;43.862;18.430;2022-11-18T02:56:29;9.30;99.90
63771;DHT22;60282;43.862;18.430;2022-11-18T02:58:55;9.30;99.90
63771;DHT22;60282;43.862;18.430;2022-11-18T03:01:41;9.40;99.90
63771;DHT22;60282;43.862;18.430;2022-11-18T03:04:06;10.70;99.90
63771;DHT22;60282;43.862;18.430;2022-11-18T03:09:28;9.70;99.90
63771;DHT22;60282;43.862;18.430;2022-11-18T03:18:00;9.80;99.90
63771;DHT22;60282;43.862;18.430;2022-11-18T03:20:35;9.80;99.90
63771;DHT22;60282;43.862;18.430;2022-11-18T03:26:00;9.80;99.90
63771;DHT22;60282;43.862;18.430;2022-11-18T03:28:35;9.70;99.90
63771;DHT22;60282;43.862;18.430;2022-11-18T03:33:37;9.70;99.90
63771;DHT22;60282;43.862;18.430;2022-11-18T03:36:06;9.70;99.90
63771;DHT22;60282;43.862;18.430;2022-11-18T03:38:38;9.70;99.90
63771;DHT22;60282;43.862;18.430;2022-11-18T03:41:08;9.60;99.90
63771;DHT22;60282;43.862;18.430;2022-11-18T03:43:46;9.50;99.90
63771;DHT22;60282;43.862;18.430;2022-11-18T03:46:14;9.60;99.90
63771;DHT22;60282;43.862;18.430;2022-11-18T03:48:45;9.60;99.90
63771;DHT22;60282;43.862;18.430;2022-11-18T03:51:15;9.60;99.90
63771;DHT22;60282;43.862;18.430;2022-11-18T03:53:45;9.50;99.90
63771;DHT22;60282;43.862;18.430;2022-11-18T03:56:18;9.50;99.90
63771;DHT22;60282;43.862;18.430;2022-11-18T03:58:59;9.50;99.90
63771;DHT22;60282;43.862;18.430;2022-11-18T04:01:32;9.50;99.90
63771;DHT22;60282;43.862;18.430;2022-11-18T04:04:02;9.50;99.90
63771;DHT22;60282;43.862;18.430;2022-11-18T04:09:26;9.40;99.90
63771;DHT22;60282;43.862;18.430;2022-11-18T04:12:00;9.40;99.90
63771;DHT22;60282;43.862;18.430;2022-11-18T04:14:37;9.40;99.90
63771;DHT22;60282;43.862;18.430;2022-11-18T04:17:21;9.40;99.90
63771;DHT22;60282;43.862;18.430;2022-11-18T04:19:49;9.50;99.90
63771;DHT22;60282;43.862;18.430;2022-11-18T04:22:18;9.40;99.90
63771;DHT22;60282;43.862;18.430;2022-11-18T04:24:44;9.50;99.90
63771;DHT22;60282;43.862;18.430;2022-11-18T04:27:10;9.50;99.90
63771;DHT22;60282;43.862;18.430;2022-11-18T04:29:36;9.60;99.90
63771;DHT22;60282;43.862;18.430;2022-11-18T04:32:03;9.60;99.90
63771;DHT22;60282;43.862;18.430;2022-11-18T04:34:29;9.70;99.90
63771;DHT22;60282;43.862;18.430;2022-11-18T04:36:55;9.70;99.90
63771;DHT22;60282;43.862;18.430;2022-11-18T04:39:26;9.70;99.90
63771;DHT22;60282;43.862;18.430;2022-11-18T04:41:52;9.70;99.90
63771;DHT22;60282;43.862;18.430;2022-11-18T04:44:28;9.70;99.90
63771;DHT22;60282;43.862;18.430;2022-11-18T04:46:56;9.80;99.90
63771;DHT22;60282;43.862;18.430;2022-11-18T04:49:22;9.80;99.90
63771;DHT22;60282;43.862;18.430;2022-11-18T04:51:49;9.80;99.90
63771;DHT22;60282;43.862;18.430;2022-11-18T04:54:16;9.80;99.90
63771;DHT22;60282;43.862;18.430;2022-11-18T04:56:43;9.90;99.90
63771;DHT22;60282;43.862;18.430;2022-11-18T04:59:09;10.10;99.90
63771;DHT22;60282;43.862;18.430;2022-11-18T05:01:36;10.10;99.90
63771;DHT22;60282;43.862;18.430;2022-11-18T05:04:03;10.00;99.90
63771;DHT22;60282;43.862;18.430;2022-11-18T05:06:30;10.30;99.90
63771;DHT22;60282;43.862;18.430;2022-11-18T05:08:57;10.40;99.90
63771;DHT22;60282;43.862;18.430;2022-11-18T05:11:24;10.60;99.90
63771;DHT22;60282;43.862;18.430;2022-11-18T05:14:09;10.60;99.90
63771;DHT22;60282;43.862;18.430;2022-11-18T05:16:35;10.60;99.90
63771;DHT22;60282;43.862;18.430;2022-11-18T05:19:06;10.60;99.90
63771;DHT22;60282;43.862;18.430;2022-11-18T05:21:33;10.60;99.90
63771;DHT22;60282;43.862;18.430;2022-11-18T05:24:00;10.50;99.90
63771;DHT22;60282;43.862;18.430;2022-11-18T05:26:26;10.50;99.90
63771;DHT22;60282;43.862;18.430;2022-11-18T05:28:52;10.60;99.90
63771;DHT22;60282;43.862;18.430;2022-11-18T05:31:18;10.60;99.90
63771;DHT22;60282;43.862;18.430;2022-11-18T05:33:44;10.80;99.90
63771;DHT22;60282;43.862;18.430;2022-11-18T05:36:13;10.80;99.90
63771;DHT22;60282;43.862;18.430;2022-11-18T05:38:45;11.40;99.90
63771;DHT22;60282;43.862;18.430;2022-11-18T05:41:12;11.60;99.90
63771;DHT22;60282;43.862;18.430;2022-11-18T05:44:01;11.70;99.90
63771;DHT22;60282;43.862;18.430;2022-11-18T05:46:31;11.90;99.90
63771;DHT22;60282;43.862;18.430;2022-11-18T05:48:57;12.00;99.90
63771;DHT22;60282;43.862;18.430;2022-11-18T05:51:24;12.00;99.90
63771;DHT22;60282;43.862;18.430;2022-11-18T05:53:51;11.80;99.90
63771;DHT22;60282;43.862;18.430;2022-11-18T05:56:28;11.60;99.90
63771;DHT22;60282;43.862;18.430;2022-11-18T05:58:54;11.60;99.90
63771;DHT22;60282;43.862;18.430;2022-11-18T06:04:58;11.60;99.90
63771;DHT22;60282;43.862;18.430;2022-11-18T06:07:24;11.60;99.90
63771;DHT22;60282;43.862;18.430;2022-11-18T06:09:56;11.60;99.90
63771;DHT22;60282;43.862;18.430;2022-11-18T06:12:29;11.50;99.90
63771;DHT22;60282;43.862;18.430;2022-11-18T06:14:57;11.50;99.90
63771;DHT22;60282;43.862;18.430;2022-11-18T06:17:28;11.50;99.90
63771;DHT22;60282;43.862;18.430;2022-11-18T06:19:56;11.00;99.90
63771;DHT22;60282;43.862;18.430;2022-11-18T06:22:22;11.30;99.90
63771;DHT22;60282;43.862;18.430;2022-11-18T06:24:48;11.20;99.90
63771;DHT22;60282;43.862;18.430;2022-11-18T06:27:14;11.20;99.90
63771;DHT22;60282;43.862;18.430;2022-11-18T06:29:41;11.20;99.90
63771;DHT22;60282;43.862;18.430;2022-11-18T06:32:07;11.00;99.90
63771;DHT22;60282;43.862;18.430;2022-11-18T06:34:33;11.00;99.90
63771;DHT22;60282;43.862;18.430;2022-11-18T06:36:58;10.80;99.90
63771;DHT22;60282;43.862;18.430;2022-11-18T06:39:24;10.70;99.90
63771;DHT22;60282;43.862;18.430;2022-11-18T06:41:54;10.70;99.90
63771;DHT22;60282;43.862;18.430;2022-11-18T06:44:20;10.60;99.90
63771;DHT22;60282;43.862;18.430;2022-11-18T06:46:45;10.80;99.90
63771;DHT22;60282;43.862;18.430;2022-11-18T06:49:20;10.70;99.90
63771;DHT22;60282;43.862;18.430;2022-11-18T06:51:46;8.30;99.90
63771;DHT22;60282;43.862;18.430;2022-11-18T06:56:42;11.20;99.90
63771;DHT22;60282;43.862;18.430;2022-11-18T06:59:08;11.80;99.90
63771;DHT22;60282;43.862;18.430;2022-11-18T07:01:36;11.60;99.90
63771;DHT22;60282;43.862;18.430;2022-11-18T07:04:02;11.60;99.90
63771;DHT22;60282;43.862;18.430;2022-11-18T07:06:31;11.90;99.90
63771;DHT22;60282;43.862;18.430;2022-11-18T07:08:59;11.70;99.90
63771;DHT22;60282;43.862;18.430;2022-11-18T07:11:26;12.00;99.90
63771;DHT22;60282;43.862;18.430;2022-11-18T07:13:52;12.50;99.90
63771;DHT22;60282;43.862;18.430;2022-11-18T07:16:23;13.10;99.90
63771;DHT22;60282;43.862;18.430;2022-11-18T07:19:11;13.00;99.90
63771;DHT22;60282;43.862;18.430;2022-11-18T07:21:38;13.10;99.90
63771;DHT22;60282;43.862;18.430;2022-11-18T07:24:06;13.20;99.90
63771;DHT22;60282;43.862;18.430;2022-11-18T07:26:33;13.30;99.90
63771;DHT22;60282;43.862;18.430;2022-11-18T07:28:59;13.50;99.90
63771;DHT22;60282;43.862;18.430;2022-11-18T07:31:25;13.70;99.90
63771;DHT22;60282;43.862;18.430;2022-11-18T07:33:52;13.80;99.90
63771;DHT22;60282;43.862;18.430;2022-11-18T07:36:25;13.90;99.90
63771;DHT22;60282;43.862;18.430;2022-11-18T07:38:54;14.70;99.90
63771;DHT22;60282;43.862;18.430;2022-11-18T07:41:24;14.00;99.90
63771;DHT22;60282;43.862;18.430;2022-11-18T07:43:53;14.20;99.90
63771;DHT22;60282;43.862;18.430;2022-11-18T07:46:23;14.30;99.90
63771;DHT22;60282;43.862;18.430;2022-11-18T07:48:51;14.30;99.90
63771;DHT22;60282;43.862;18.430;2022-11-18T07:51:19;14.40;99.90
63771;DHT22;60282;43.862;18.430;2022-11-18T07:53:45;14.50;99.90
63771;DHT22;60282;43.862;18.430;2022-11-18T07:56:12;14.60;99.90
63771;DHT22;60282;43.862;18.430;2022-11-18T07:58:38;14.80;99.90
63771;DHT22;60282;43.862;18.430;2022-11-18T08:01:17;15.00;99.90
63771;DHT22;60282;43.862;18.430;2022-11-18T08:03:44;15.20;99.90
63771;DHT22;60282;43.862;18.430;2022-11-18T08:06:11;15.30;99.90
63771;DHT22;60282;43.862;18.430;2022-11-18T08:08:38;15.50;99.90
63771;DHT22;60282;43.862;18.430;2022-11-18T08:11:07;15.60;99.90
63771;DHT22;60282;43.862;18.430;2022-11-18T08:13:33;15.60;99.90
63771;DHT22;60282;43.862;18.430;2022-11-18T08:15:59;15.80;99.90
63771;DHT22;60282;43.862;18.430;2022-11-18T08:18:27;15.80;99.90
63771;DHT22;60282;43.862;18.430;2022-11-18T08:20:53;15.80;99.90
63771;DHT22;60282;43.862;18.430;2022-11-18T08:23:19;15.70;99.90
63771;DHT22;60282;43.862;18.430;2022-11-18T08:25:46;15.40;99.90
63771;DHT22;60282;43.862;18.430;2022-11-18T08:28:13;15.80;99.90
63771;DHT22;60282;43.862;18.430;2022-11-18T08:30:38;16.00;99.90
63771;DHT22;60282;43.862;18.430;2022-11-18T08:33:05;16.00;99.90
63771;DHT22;60282;43.862;18.430;2022-11-18T08:35:31;16.10;99.90
63771;DHT22;60282;43.862;18.430;2022-11-18T08:37:58;16.10;99.90
63771;DHT22;60282;43.862;18.430;2022-11-18T08:40:24;16.20;99.90
63771;DHT22;60282;43.862;18.430;2022-11-18T08:42:50;16.40;99.90
63771;DHT22;60282;43.862;18.430;2022-11-18T08:45:16;16.40;99.90
63771;DHT22;60282;43.862;18.430;2022-11-18T08:47:42;16.40;99.90
63771;DHT22;60282;43.862;18.430;2022-11-18T08:50:09;16.30;99.90
63771;DHT22;60282;43.862;18.430;2022-11-18T08:52:38;16.30;99.90
63771;DHT22;60282;43.862;18.430;2022-11-18T08:55:07;16.20;99.90
63771;DHT22;60282;43.862;18.430;2022-11-18T08:57:33;13.20;99.90
63771;DHT22;60282;43.862;18.430;2022-11-18T08:59:58;16.20;99.90
63771;DHT22;60282;43.862;18.430;2022-11-18T09:02:24;16.10;99.90
63771;DHT22;60282;43.862;18.430;2022-11-18T09:04:51;16.20;99.90
63771;DHT22;60282;43.862;18.430;2022-11-18T09:07:18;16.00;99.90
63771;DHT22;60282;43.862;18.430;2022-11-18T09:09:44;16.00;99.90
63771;DHT22;60282;43.862;18.430;2022-11-18T09:12:10;15.90;99.90
63771;DHT22;60282;43.862;18.430;2022-11-18T09:14:41;15.90;99.90
63771;DHT22;60282;43.862;18.430;2022-11-18T09:17:07;15.80;99.90
63771;DHT22;60282;43.862;18.430;2022-11-18T09:19:33;15.80;99.90
63771;DHT22;60282;43.862;18.430;2022-11-18T09:21:59;15.80;99.90
63771;DHT22;60282;43.862;18.430;2022-11-18T09:24:24;15.80;99.90
63771;DHT22;60282;43.862;18.430;2022-11-18T09:26:50;15.90;99.90
63771;DHT22;60282;43.862;18.430;2022-11-18T09:29:18;15.80;99.90
63771;DHT22;60282;43.862;18.430;2022-11-18T09:31:44;15.80;99.90
63771;DHT22;60282;43.862;18.430;2022-11-18T09:34:10;15.80;99.90
63771;DHT22;60282;43.862;18.430;2022-11-18T09:36:36;15.70;99.90
63771;DHT22;60282;43.862;18.430;2022-11-18T09:39:02;15.80;99.90
63771;DHT22;60282;43.862;18.430;2022-11-18T09:46:46;15.90;99.90
63771;DHT22;60282;43.862;18.430;2022-11-18T09:49:45;15.90;99.90
63771;DHT22;60282;43.862;18.430;2022-11-18T09:52:18;16.00;99.90
63771;DHT22;60282;43.862;18.430;2022-11-18T09:54:46;16.00;99.90
63771;DHT22;60282;43.862;18.430;2022-11-18T09:57:18;16.10;99.90
63771;DHT22;60282;43.862;18.430;2022-11-18T09:59:44;16.20;99.90
63771;DHT22;60282;43.862;18.430;2022-11-18T10:04:48;16.50;99.90
63771;DHT22;60282;43.862;18.430;2022-11-18T10:07:23;16.70;99.90
63771;DHT22;60282;43.862;18.430;2022-11-18T10:09:53;16.80;99.90
63771;DHT22;60282;43.862;18.430;2022-11-18T10:12:37;16.80;99.90
63771;DHT22;60282;43.862;18.430;2022-11-18T10:20:31;17.00;99.90
63771;DHT22;60282;43.862;18.430;2022-11-18T10:23:20;17.00;99.90
63771;DHT22;60282;43.862;18.430;2022-11-18T10:25:47;17.20;99.40
63771;DHT22;60282;43.862;18.430;2022-11-18T10:28:22;16.90;99.90
63771;DHT22;60282;43.862;18.430;2022-11-18T10:30:48;16.70;99.90
63771;DHT22;60282;43.862;18.430;2022-11-18T10:35:47;16.50;99.90
63771;DHT22;60282;43.862;18.430;2022-11-18T10:38:18;16.50;99.90
63771;DHT22;60282;43.862;18.430;2022-11-18T10:40:59;16.40;99.90
63771;DHT22;60282;43.862;18.430;2022-11-18T10:43:53;16.60;99.90
63771;DHT22;60282;43.862;18.430;2022-11-18T10:46:26;15.60;99.90
63771;DHT22;60282;43.862;18.430;2022-11-18T10:51:34;16.30;99.90
63771;DHT22;60282;43.862;18.430;2022-11-18T10:54:07;16.60;99.90
63771;DHT22;60282;43.862;18.430;2022-11-18T10:56:49;16.20;99.90
63771;DHT22;60282;43.862;18.430;2022-11-18T10:59:39;16.20;99.90
63771;DHT22;60282;43.862;18.430;2022-11-18T11:02:38;16.20;99.90
63771;DHT22;60282;43.862;18.430;2022-11-18T11:05:20;16.10;99.90
63771;DHT22;60282;43.862;18.430;2022-11-18T11:08:04;16.10;99.90
63771;DHT22;60282;43.862;18.430;2022-11-18T11:10:33;16.10;99.90
63771;DHT22;60282;43.862;18.430;2022-11-18T11:13:02;16.50;99.90
63771;DHT22;60282;43.862;18.430;2022-11-18T11:15:48;16.10;99.90
63771;DHT22;60282;43.862;18.430;2022-11-18T11:18:28;19.20;99.90
63771;DHT22;60282;43.862;18.430;2022-11-18T11:23:43;16.10;99.90
63771;DHT22;60282;43.862;18.430;2022-11-18T11:29:18;16.00;99.90
63771;DHT22;60282;43.862;18.430;2022-11-18T11:32:14;16.20;99.90
63771;DHT22;60282;43.862;18.430;2022-11-18T11:40:36;16.50;99.90
63771;DHT22;60282;43.862;18.430;2022-11-18T11:50:54;16.30;99.90
63771;DHT22;60282;43.862;18.430;2022-11-18T11:56:39;16.50;99.90
63771;DHT22;60282;43.862;18.430;2022-11-18T12:04:55;16.40;99.90
63771;DHT22;60282;43.862;18.430;2022-11-18T12:07:30;16.40;99.90
63771;DHT22;60282;43.862;18.430;2022-11-18T12:20:55;14.50;99.90
63771;DHT22;60282;43.862;18.430;2022-11-18T12:23:26;16.30;99.90
63771;DHT22;60282;43.862;18.430;2022-11-18T12:28:37;15.70;99.90
63771;DHT22;60282;43.862;18.430;2022-11-18T12:33:46;16.20;99.90
63771;DHT22;60282;43.862;18.430;2022-11-18T12:36:32;16.20;99.90
63771;DHT22;60282;43.862;18.430;2022-11-18T12:44:29;15.90;99.90
63771;DHT22;60282;43.862;18.430;2022-11-18T12:46:59;15.90;99.90
63771;DHT22;60282;43.862;18.430;2022-11-18T12:51:58;15.90;99.90
63771;DHT22;60282;43.862;18.430;2022-11-18T12:54:44;15.90;99.90
63771;DHT22;60282;43.862;18.430;2022-11-18T12:57:19;16.00;99.90
63771;DHT22;60282;43.862;18.430;2022-11-18T12:59:45;15.80;99.90
63771;DHT22;60282;43.862;18.430;2022-11-18T13:04:39;15.80;99.90
63771;DHT22;60282;43.862;18.430;2022-11-18T13:07:10;15.70;99.90
63771;DHT22;60282;43.862;18.430;2022-11-18T13:09:57;15.70;99.90
63771;DHT22;60282;43.862;18.430;2022-11-18T13:12:26;15.80;99.90
63771;DHT22;60282;43.862;18.430;2022-11-18T13:14:54;15.80;99.90
63771;DHT22;60282;43.862;18.430;2022-11-18T13:17:40;15.80;99.90
63771;DHT22;60282;43.862;18.430;2022-11-18T13:20:40;15.80;99.90
63771;DHT22;60282;43.862;18.430;2022-11-18T13:26:37;15.80;99.90
63771;DHT22;60282;43.862;18.430;2022-11-18T13:34:23;17.10;99.90
63771;DHT22;60282;43.862;18.430;2022-11-18T13:36:51;15.70;99.90
63771;DHT22;60282;43.862;18.430;2022-11-18T13:42:12;15.70;99.90
63771;DHT22;60282;43.862;18.430;2022-11-18T13:44:38;15.70;99.90
63771;DHT22;60282;43.862;18.430;2022-11-18T13:47:30;15.60;99.90
63771;DHT22;60282;43.862;18.430;2022-11-18T13:50:16;15.60;99.90
63771;DHT22;60282;43.862;18.430;2022-11-18T13:53:13;15.50;99.90
63771;DHT22;60282;43.862;18.430;2022-11-18T13:55:53;15.50;99.90
63771;DHT22;60282;43.862;18.430;2022-11-18T13:58:40;15.50;99.90
63771;DHT22;60282;43.862;18.430;2022-11-18T14:04:21;15.50;99.90
63771;DHT22;60282;43.862;18.430;2022-11-18T14:06:47;15.50;99.90
63771;DHT22;60282;43.862;18.430;2022-11-18T14:11:59;15.50;99.90
63771;DHT22;60282;43.862;18.430;2022-11-18T14:14:33;15.40;99.90
63771;DHT22;60282;43.862;18.430;2022-11-18T14:19:47;15.40;99.90
63771;DHT22;60282;43.862;18.430;2022-11-18T14:29:57;15.30;99.90
63771;DHT22;60282;43.862;18.430;2022-11-18T14:32:26;15.30;99.90
63771;DHT22;60282;43.862;18.430;2022-11-18T14:34:59;15.30;99.90
63771;DHT22;60282;43.862;18.430;2022-11-18T14:37:25;15.30;99.90
63771;DHT22;60282;43.862;18.430;2022-11-18T14:39:56;15.30;99.90
63771;DHT22;60282;43.862;18.430;2022-11-18T14:42:22;15.30;99.90
63771;DHT22;60282;43.862;18.430;2022-11-18T14:44:49;15.30;99.90
63771;DHT22;60282;43.862;18.430;2022-11-18T14:47:26;15.30;99.90
63771;DHT22;60282;43.862;18.430;2022-11-18T14:49:52;15.30;99.90
63771;DHT22;60282;43.862;18.430;2022-11-18T14:52:18;14.90;99.90
63771;DHT22;60282;43.862;18.430;2022-11-18T14:54:44;14.60;99.90
63771;DHT22;60282;43.862;18.430;2022-11-18T14:57:14;14.20;99.90
63771;DHT22;60282;43.862;18.430;2022-11-18T14:59:41;13.90;99.90
63771;DHT22;60282;43.862;18.430;2022-11-18T15:02:15;13.60;99.90
63771;DHT22;60282;43.862;18.430;2022-11-18T15:04:42;13.30;99.90
63771;DHT22;60282;43.862;18.430;2022-11-18T15:07:15;13.10;99.90
63771;DHT22;60282;43.862;18.430;2022-11-18T15:09:41;12.90;99.90
63771;DHT22;60282;43.862;18.430;2022-11-18T15:12:07;12.80;99.90
63771;DHT22;60282;43.862;18.430;2022-11-18T15:14:33;12.80;99.90
63771;DHT22;60282;43.862;18.430;2022-11-18T15:17:02;12.70;99.90
63771;DHT22;60282;43.862;18.430;2022-11-18T15:19:28;12.70;99.90
63771;DHT22;60282;43.862;18.430;2022-11-18T15:21:54;12.60;99.90
63771;DHT22;60282;43.862;18.430;2022-11-18T15:24:20;12.60;99.90
63771;DHT22;60282;43.862;18.430;2022-11-18T15:26:47;12.60;99.90
63771;DHT22;60282;43.862;18.430;2022-11-18T15:29:21;12.60;99.90
63771;DHT22;60282;43.862;18.430;2022-11-18T15:31:47;12.50;99.90
63771;DHT22;60282;43.862;18.430;2022-11-18T15:34:14;12.30;99.90
63771;DHT22;60282;43.862;18.430;2022-11-18T15:36:40;12.20;99.90
63771;DHT22;60282;43.862;18.430;2022-11-18T15:39:06;12.10;99.90
63771;DHT22;60282;43.862;18.430;2022-11-18T15:41:33;12.10;99.90
63771;DHT22;60282;43.862;18.430;2022-11-18T15:43:59;12.00;99.90
63771;DHT22;60282;43.862;18.430;2022-11-18T15:46:30;11.90;99.90
63771;DHT22;60282;43.862;18.430;2022-11-18T15:48:58;11.90;99.90
63771;DHT22;60282;43.862;18.430;2022-11-18T15:51:26;11.80;99.90
63771;DHT22;60282;43.862;18.430;2022-11-18T15:54:05;11.90;99.90
63771;DHT22;60282;43.862;18.430;2022-11-18T15:56:35;13.50;99.90
63771;DHT22;60282;43.862;18.430;2022-11-18T15:59:08;11.70;99.90
63771;DHT22;60282;43.862;18.430;2022-11-18T16:01:36;11.60;99.90
63771;DHT22;60282;43.862;18.430;2022-11-18T16:04:08;11.60;99.90
63771;DHT22;60282;43.862;18.430;2022-11-18T16:06:36;11.60;99.90
63771;DHT22;60282;43.862;18.430;2022-11-18T16:09:03;11.50;99.90
63771;DHT22;60282;43.862;18.430;2022-11-18T16:11:30;11.50;99.90
63771;DHT22;60282;43.862;18.430;2022-11-18T16:14:16;11.50;99.90
63771;DHT22;60282;43.862;18.430;2022-11-18T16:17:02;11.40;99.90
63771;DHT22;60282;43.862;18.430;2022-11-18T16:19:27;11.30;99.90
63771;DHT22;60282;43.862;18.430;2022-11-18T16:21:59;11.20;99.90
63771;DHT22;60282;43.862;18.430;2022-11-18T16:24:26;11.20;99.90
63771;DHT22;60282;43.862;18.430;2022-11-18T16:26:53;11.20;99.90
63771;DHT22;60282;43.862;18.430;2022-11-18T16:29:19;11.20;99.90
63771;DHT22;60282;43.862;18.430;2022-11-18T16:31:46;11.10;99.90
63771;DHT22;60282;43.862;18.430;2022-11-18T16:34:18;10.80;99.90
63771;DHT22;60282;43.862;18.430;2022-11-18T16:36:46;11.10;99.90
63771;DHT22;60282;43.862;18.430;2022-11-18T16:39:16;11.20;99.90
63771;DHT22;60282;43.862;18.430;2022-11-18T16:41:43;11.20;99.90
63771;DHT22;60282;43.862;18.430;2022-11-18T16:44:13;11.20;99.90
63771;DHT22;60282;43.862;18.430;2022-11-18T16:47:01;11.10;99.90
63771;DHT22;60282;43.862;18.430;2022-11-18T16:49:26;11.20;99.90
63771;DHT22;60282;43.862;18.430;2022-11-18T16:51:53;11.20;99.90
63771;DHT22;60282;43.862;18.430;2022-11-18T16:54:25;11.20;99.90
63771;DHT22;60282;43.862;18.430;2022-11-18T16:56:53;11.20;99.90
63771;DHT22;60282;43.862;18.430;2022-11-18T16:59:29;11.20;99.90
63771;DHT22;60282;43.862;18.430;2022-11-18T17:01:57;11.20;99.90
63771;DHT22;60282;43.862;18.430;2022-11-18T17:04:24;11.20;99.90
63771;DHT22;60282;43.862;18.430;2022-11-18T17:06:51;11.20;99.90
63771;DHT22;60282;43.862;18.430;2022-11-18T17:09:19;11.20;99.90
63771;DHT22;60282;43.862;18.430;2022-11-18T17:11:46;11.20;99.90
63771;DHT22;60282;43.862;18.430;2022-11-18T17:14:12;11.20;99.90
63771;DHT22;60282;43.862;18.430;2022-11-18T17:16:38;11.20;99.90
63771;DHT22;60282;43.862;18.430;2022-11-18T17:19:04;11.20;99.90
63771;DHT22;60282;43.862;18.430;2022-11-18T17:21:31;11.20;99.90
63771;DHT22;60282;43.862;18.430;2022-11-18T17:23:58;11.20;99.90
63771;DHT22;60282;43.862;18.430;2022-11-18T17:26:30;11.20;99.90
63771;DHT22;60282;43.862;18.430;2022-11-18T17:28:56;11.20;99.90
63771;DHT22;60282;43.862;18.430;2022-11-18T17:31:23;11.20;99.90
63771;DHT22;60282;43.862;18.430;2022-11-18T17:34:00;11.20;99.90
63771;DHT22;60282;43.862;18.430;2022-11-18T17:36:26;11.10;99.90
63771;DHT22;60282;43.862;18.430;2022-11-18T17:38:54;11.10;99.90
63771;DHT22;60282;43.862;18.430;2022-11-18T17:41:22;11.10;99.90
63771;DHT22;60282;43.862;18.430;2022-11-18T17:44:10;10.60;99.90
63771;DHT22;60282;43.862;18.430;2022-11-18T17:46:36;11.00;99.90
63771;DHT22;60282;43.862;18.430;2022-11-18T17:49:04;10.90;99.90
63771;DHT22;60282;43.862;18.430;2022-11-18T17:51:31;10.90;99.90